sensor_id;sensor_type;location;lat;lon;timestamp;P1;durP1;ratioP1;P2;durP2;ratioP2
45326;SDS011;31062;49.678;24.560;2022-08-23T00:01:22;9.30;;;3.50;;
45326;SDS011;31062;49.678;24.560;2022-08-23T00:04:13;5.80;;;2.90;;
45326;SDS011;31062;49.678;24.560;2022-08-23T00:07:04;8.88;;;3.10;;
45326;SDS011;31062;49.678;24.560;2022-08-23T00:09:51;7.18;;;2.72;;
45326;SDS011;31062;49.678;24.560;2022-08-23T00:12:36;7.50;;;2.85;;
45326;SDS011;31062;49.678;24.560;2022-08-23T00:15:22;13.13;;;2.85;;
45326;SDS011;31062;49.678;24.560;2022-08-23T00:18:08;5.57;;;2.67;;
45326;SDS011;31062;49.678;24.560;2022-08-23T00:20:53;12.20;;;3.10;;
45326;SDS011;31062;49.678;24.560;2022-08-23T00:23:39;5.03;;;2.60;;
45326;SDS011;31062;49.678;24.560;2022-08-23T00:26:24;7.43;;;3.20;;
45326;SDS011;31062;49.678;24.560;2022-08-23T00:29:09;4.55;;;2.83;;
45326;SDS011;31062;49.678;24.560;2022-08-23T00:31:55;11.10;;;4.35;;
45326;SDS011;31062;49.678;24.560;2022-08-23T00:34:42;10.82;;;3.75;;
45326;SDS011;31062;49.678;24.560;2022-08-23T00:37:29;6.25;;;3.88;;
45326;SDS011;31062;49.678;24.560;2022-08-23T00:40:17;16.98;;;4.28;;
45326;SDS011;31062;49.678;24.560;2022-08-23T00:43:06;4.13;;;2.85;;
45326;SDS011;31062;49.678;24.560;2022-08-23T00:52:22;5.13;;;2.83;;
45326;SDS011;31062;49.678;24.560;2022-08-23T00:55:13;5.95;;;3.17;;
45326;SDS011;31062;49.678;24.560;2022-08-23T00:58:01;7.45;;;3.20;;
45326;SDS011;31062;49.678;24.560;2022-08-23T01:00:48;7.35;;;4.07;;
45326;SDS011;31062;49.678;24.560;2022-08-23T01:03:36;8.25;;;3.63;;
45326;SDS011;31062;49.678;24.560;2022-08-23T01:06:34;9.50;;;3.20;;
45326;SDS011;31062;49.678;24.560;2022-08-23T01:09:28;10.40;;;3.20;;
45326;SDS011;31062;49.678;24.560;2022-08-23T01:12:15;6.25;;;2.95;;
45326;SDS011;31062;49.678;24.560;2022-08-23T01:15:25;8.65;;;3.22;;
45326;SDS011;31062;49.678;24.560;2022-08-23T01:18:16;9.07;;;2.80;;
45326;SDS011;31062;49.678;24.560;2022-08-23T01:21:09;8.30;;;3.15;;
45326;SDS011;31062;49.678;24.560;2022-08-23T01:24:00;6.95;;;3.30;;
45326;SDS011;31062;49.678;24.560;2022-08-23T01:26:48;9.25;;;4.00;;
45326;SDS011;31062;49.678;24.560;2022-08-23T01:29:34;4.55;;;2.88;;
45326;SDS011;31062;49.678;24.560;2022-08-23T01:32:20;6.40;;;2.80;;
45326;SDS011;31062;49.678;24.560;2022-08-23T01:35:06;8.10;;;3.10;;
45326;SDS011;31062;49.678;24.560;2022-08-23T01:37:52;12.50;;;3.47;;
45326;SDS011;31062;49.678;24.560;2022-08-23T01:40:38;9.15;;;3.75;;
45326;SDS011;31062;49.678;24.560;2022-08-23T01:43:24;10.00;;;3.58;;
45326;SDS011;31062;49.678;24.560;2022-08-23T01:46:12;14.13;;;3.40;;
45326;SDS011;31062;49.678;24.560;2022-08-23T01:49:03;9.27;;;3.22;;
45326;SDS011;31062;49.678;24.560;2022-08-23T01:51:53;6.03;;;3.15;;
45326;SDS011;31062;49.678;24.560;2022-08-23T01:54:40;6.20;;;3.05;;
45326;SDS011;31062;49.678;24.560;2022-08-23T01:57:25;5.13;;;3.10;;
45326;SDS011;31062;49.678;24.560;2022-08-23T02:00:11;5.35;;;3.20;;
45326;SDS011;31062;49.678;24.560;2022-08-23T02:02:58;8.02;;;2.90;;
45326;SDS011;31062;49.678;24.560;2022-08-23T02:05:45;4.40;;;2.78;;
45326;SDS011;31062;49.678;24.560;2022-08-23T02:08:31;7.78;;;4.10;;
45326;SDS011;31062;49.678;24.560;2022-08-23T02:11:40;4.40;;;3.17;;
45326;SDS011;31062;49.678;24.560;2022-08-23T02:14:27;6.13;;;3.28;;
45326;SDS011;31062;49.678;24.560;2022-08-23T02:17:15;7.50;;;2.78;;
45326;SDS011;31062;49.678;24.560;2022-08-23T02:20:02;6.10;;;3.03;;
45326;SDS011;31062;49.678;24.560;2022-08-23T02:22:49;4.88;;;2.97;;
45326;SDS011;31062;49.678;24.560;2022-08-23T02:25:36;6.35;;;3.00;;
45326;SDS011;31062;49.678;24.560;2022-08-23T02:28:22;3.88;;;2.83;;
45326;SDS011;31062;49.678;24.560;2022-08-23T02:31:09;4.43;;;3.10;;
45326;SDS011;31062;49.678;24.560;2022-08-23T02:33:56;3.33;;;2.67;;
45326;SDS011;31062;49.678;24.560;2022-08-23T02:36:45;10.82;;;2.95;;
45326;SDS011;31062;49.678;24.560;2022-08-23T02:39:31;6.00;;;2.83;;
45326;SDS011;31062;49.678;24.560;2022-08-23T02:42:17;10.73;;;2.90;;
45326;SDS011;31062;49.678;24.560;2022-08-23T02:45:02;6.55;;;3.75;;
45326;SDS011;31062;49.678;24.560;2022-08-23T02:47:51;6.93;;;3.28;;
45326;SDS011;31062;49.678;24.560;2022-08-23T02:50:42;12.57;;;2.72;;
45326;SDS011;31062;49.678;24.560;2022-08-23T02:53:28;5.57;;;2.90;;
45326;SDS011;31062;49.678;24.560;2022-08-23T02:56:14;4.18;;;2.40;;
45326;SDS011;31062;49.678;24.560;2022-08-23T02:59:06;5.13;;;2.58;;
45326;SDS011;31062;49.678;24.560;2022-08-23T03:01:52;12.82;;;2.88;;
45326;SDS011;31062;49.678;24.560;2022-08-23T03:04:52;4.45;;;2.53;;
45326;SDS011;31062;49.678;24.560;2022-08-23T03:07:37;9.00;;;2.70;;
45326;SDS011;31062;49.678;24.560;2022-08-23T03:10:23;3.30;;;3.00;;
45326;SDS011;31062;49.678;24.560;2022-08-23T03:13:15;7.45;;;2.90;;
45326;SDS011;31062;49.678;24.560;2022-08-23T03:16:03;4.65;;;2.75;;
45326;SDS011;31062;49.678;24.560;2022-08-23T03:18:49;9.27;;;2.60;;
45326;SDS011;31062;49.678;24.560;2022-08-23T03:21:35;8.18;;;3.17;;
45326;SDS011;31062;49.678;24.560;2022-08-23T03:24:23;10.30;;;2.95;;
45326;SDS011;31062;49.678;24.560;2022-08-23T03:27:09;8.75;;;3.40;;
45326;SDS011;31062;49.678;24.560;2022-08-23T03:29:57;7.78;;;3.03;;
45326;SDS011;31062;49.678;24.560;2022-08-23T03:32:42;11.93;;;3.45;;
45326;SDS011;31062;49.678;24.560;2022-08-23T03:35:33;5.87;;;2.73;;
45326;SDS011;31062;49.678;24.560;2022-08-23T03:38:20;7.68;;;2.75;;
45326;SDS011;31062;49.678;24.560;2022-08-23T03:41:07;7.55;;;2.95;;
45326;SDS011;31062;49.678;24.560;2022-08-23T03:43:53;8.00;;;3.10;;
45326;SDS011;31062;49.678;24.560;2022-08-23T03:46:39;6.63;;;2.90;;
45326;SDS011;31062;49.678;24.560;2022-08-23T03:49:25;10.43;;;3.20;;
45326;SDS011;31062;49.678;24.560;2022-08-23T03:52:12;7.82;;;3.45;;
45326;SDS011;31062;49.678;24.560;2022-08-23T03:54:59;8.77;;;2.35;;
45326;SDS011;31062;49.678;24.560;2022-08-23T03:57:47;5.35;;;3.08;;
45326;SDS011;31062;49.678;24.560;2022-08-23T04:00:35;5.53;;;2.83;;
45326;SDS011;31062;49.678;24.560;2022-08-23T04:03:21;8.25;;;2.65;;
45326;SDS011;31062;49.678;24.560;2022-08-23T04:06:21;3.33;;;2.83;;
45326;SDS011;31062;49.678;24.560;2022-08-23T04:09:07;6.55;;;2.38;;
45326;SDS011;31062;49.678;24.560;2022-08-23T04:11:52;2.40;;;2.20;;
45326;SDS011;31062;49.678;24.560;2022-08-23T04:14:38;4.85;;;2.40;;
45326;SDS011;31062;49.678;24.560;2022-08-23T04:17:24;4.53;;;2.67;;
45326;SDS011;31062;49.678;24.560;2022-08-23T04:20:10;3.58;;;2.70;;
45326;SDS011;31062;49.678;24.560;2022-08-23T04:23:06;3.88;;;2.47;;
45326;SDS011;31062;49.678;24.560;2022-08-23T04:26:07;4.10;;;2.38;;
45326;SDS011;31062;49.678;24.560;2022-08-23T04:28:54;4.90;;;2.58;;
45326;SDS011;31062;49.678;24.560;2022-08-23T04:31:44;5.78;;;2.50;;
45326;SDS011;31062;49.678;24.560;2022-08-23T04:34:34;3.45;;;2.10;;
45326;SDS011;31062;49.678;24.560;2022-08-23T04:37:21;4.57;;;2.13;;
45326;SDS011;31062;49.678;24.560;2022-08-23T04:40:08;2.17;;;2.08;;
45326;SDS011;31062;49.678;24.560;2022-08-23T04:43:13;7.30;;;2.60;;
45326;SDS011;31062;49.678;24.560;2022-08-23T04:45:59;9.98;;;2.60;;
45326;SDS011;31062;49.678;24.560;2022-08-23T04:48:51;6.03;;;2.85;;
45326;SDS011;31062;49.678;24.560;2022-08-23T04:51:38;10.43;;;2.45;;
45326;SDS011;31062;49.678;24.560;2022-08-23T04:54:24;7.38;;;2.50;;
45326;SDS011;31062;49.678;24.560;2022-08-23T04:57:34;5.63;;;2.65;;
45326;SDS011;31062;49.678;24.560;2022-08-23T05:00:20;16.65;;;3.67;;
45326;SDS011;31062;49.678;24.560;2022-08-23T05:03:14;4.30;;;2.97;;
45326;SDS011;31062;49.678;24.560;2022-08-23T05:06:02;3.35;;;2.92;;
45326;SDS011;31062;49.678;24.560;2022-08-23T05:08:55;9.02;;;3.13;;
45326;SDS011;31062;49.678;24.560;2022-08-23T05:11:42;7.93;;;2.97;;
45326;SDS011;31062;49.678;24.560;2022-08-23T05:14:30;9.20;;;2.72;;
45326;SDS011;31062;49.678;24.560;2022-08-23T05:17:19;7.93;;;2.78;;
45326;SDS011;31062;49.678;24.560;2022-08-23T05:20:05;8.27;;;4.43;;
45326;SDS011;31062;49.678;24.560;2022-08-23T05:22:53;9.90;;;3.45;;
45326;SDS011;31062;49.678;24.560;2022-08-23T05:25:46;7.03;;;3.67;;
45326;SDS011;31062;49.678;24.560;2022-08-23T05:28:45;10.30;;;3.65;;
45326;SDS011;31062;49.678;24.560;2022-08-23T05:31:33;16.33;;;5.18;;
45326;SDS011;31062;49.678;24.560;2022-08-23T05:34:20;17.67;;;3.90;;
45326;SDS011;31062;49.678;24.560;2022-08-23T05:37:10;37.17;;;5.18;;
45326;SDS011;31062;49.678;24.560;2022-08-23T05:39:58;22.95;;;5.75;;
45326;SDS011;31062;49.678;24.560;2022-08-23T05:42:46;42.65;;;6.30;;
45326;SDS011;31062;49.678;24.560;2022-08-23T05:45:32;34.80;;;6.38;;
45326;SDS011;31062;49.678;24.560;2022-08-23T05:48:19;29.52;;;6.13;;
45326;SDS011;31062;49.678;24.560;2022-08-23T05:51:10;39.25;;;5.15;;
45326;SDS011;31062;49.678;24.560;2022-08-23T05:53:58;31.05;;;6.07;;
45326;SDS011;31062;49.678;24.560;2022-08-23T05:56:47;49.13;;;7.90;;
45326;SDS011;31062;49.678;24.560;2022-08-23T05:59:33;31.58;;;5.18;;
45326;SDS011;31062;49.678;24.560;2022-08-23T06:02:19;44.53;;;5.78;;
45326;SDS011;31062;49.678;24.560;2022-08-23T06:05:04;43.75;;;7.47;;
45326;SDS011;31062;49.678;24.560;2022-08-23T06:07:50;69.47;;;8.73;;
45326;SDS011;31062;49.678;24.560;2022-08-23T06:10:39;65.10;;;10.35;;
45326;SDS011;31062;49.678;24.560;2022-08-23T06:13:46;61.65;;;8.25;;
45326;SDS011;31062;49.678;24.560;2022-08-23T06:16:42;72.97;;;8.52;;
45326;SDS011;31062;49.678;24.560;2022-08-23T06:19:34;74.90;;;7.47;;
45326;SDS011;31062;49.678;24.560;2022-08-23T06:22:42;77.20;;;8.07;;
45326;SDS011;31062;49.678;24.560;2022-08-23T06:25:28;60.05;;;7.65;;
45326;SDS011;31062;49.678;24.560;2022-08-23T06:28:27;73.15;;;8.95;;
45326;SDS011;31062;49.678;24.560;2022-08-23T06:31:14;73.22;;;8.15;;
45326;SDS011;31062;49.678;24.560;2022-08-23T06:37:33;67.60;;;7.72;;
45326;SDS011;31062;49.678;24.560;2022-08-23T06:40:36;88.30;;;9.57;;
45326;SDS011;31062;49.678;24.560;2022-08-23T06:43:42;84.15;;;8.15;;
45326;SDS011;31062;49.678;24.560;2022-08-23T06:46:43;66.30;;;7.38;;
45326;SDS011;31062;49.678;24.560;2022-08-23T06:49:32;71.25;;;9.15;;
45326;SDS011;31062;49.678;24.560;2022-08-23T06:52:18;86.72;;;8.98;;
45326;SDS011;31062;49.678;24.560;2022-08-23T06:55:14;87.53;;;11.82;;
45326;SDS011;31062;49.678;24.560;2022-08-23T06:58:13;86.53;;;9.48;;
45326;SDS011;31062;49.678;24.560;2022-08-23T07:04:37;68.95;;;8.55;;
45326;SDS011;31062;49.678;24.560;2022-08-23T07:07:44;78.20;;;10.35;;
45326;SDS011;31062;49.678;24.560;2022-08-23T07:10:31;78.18;;;8.68;;
45326;SDS011;31062;49.678;24.560;2022-08-23T07:13:18;81.40;;;9.25;;
45326;SDS011;31062;49.678;24.560;2022-08-23T07:16:03;82.03;;;9.93;;
45326;SDS011;31062;49.678;24.560;2022-08-23T07:18:50;80.82;;;9.80;;
45326;SDS011;31062;49.678;24.560;2022-08-23T07:21:36;87.47;;;9.23;;
45326;SDS011;31062;49.678;24.560;2022-08-23T07:24:22;82.30;;;10.52;;
45326;SDS011;31062;49.678;24.560;2022-08-23T07:27:16;86.80;;;9.50;;
45326;SDS011;31062;49.678;24.560;2022-08-23T07:30:14;60.15;;;7.93;;
45326;SDS011;31062;49.678;24.560;2022-08-23T07:33:02;78.80;;;10.65;;
45326;SDS011;31062;49.678;24.560;2022-08-23T07:35:55;78.93;;;12.07;;
45326;SDS011;31062;49.678;24.560;2022-08-23T07:38:42;72.80;;;10.52;;
45326;SDS011;31062;49.678;24.560;2022-08-23T07:41:30;74.85;;;10.82;;
45326;SDS011;31062;49.678;24.560;2022-08-23T07:44:18;104.43;;;10.90;;
45326;SDS011;31062;49.678;24.560;2022-08-23T07:47:07;90.82;;;11.52;;
45326;SDS011;31062;49.678;24.560;2022-08-23T07:49:54;80.10;;;9.52;;
45326;SDS011;31062;49.678;24.560;2022-08-23T07:52:40;88.88;;;10.15;;
45326;SDS011;31062;49.678;24.560;2022-08-23T07:55:26;104.10;;;12.57;;
45326;SDS011;31062;49.678;24.560;2022-08-23T07:58:32;77.47;;;9.57;;
45326;SDS011;31062;49.678;24.560;2022-08-23T08:01:43;80.07;;;10.27;;
45326;SDS011;31062;49.678;24.560;2022-08-23T08:04:30;72.18;;;8.57;;
45326;SDS011;31062;49.678;24.560;2022-08-23T08:07:16;85.40;;;10.68;;
45326;SDS011;31062;49.678;24.560;2022-08-23T08:10:12;83.72;;;11.68;;
45326;SDS011;31062;49.678;24.560;2022-08-23T08:12:58;80.30;;;9.45;;
45326;SDS011;31062;49.678;24.560;2022-08-23T08:15:46;90.85;;;10.38;;
45326;SDS011;31062;49.678;24.560;2022-08-23T08:18:34;91.07;;;9.10;;
45326;SDS011;31062;49.678;24.560;2022-08-23T08:21:40;88.57;;;11.95;;
45326;SDS011;31062;49.678;24.560;2022-08-23T08:24:53;85.93;;;11.02;;
45326;SDS011;31062;49.678;24.560;2022-08-23T08:27:41;77.40;;;10.20;;
45326;SDS011;31062;49.678;24.560;2022-08-23T08:30:34;72.68;;;11.02;;
45326;SDS011;31062;49.678;24.560;2022-08-23T08:33:22;82.55;;;10.02;;
45326;SDS011;31062;49.678;24.560;2022-08-23T08:36:29;62.35;;;8.80;;
45326;SDS011;31062;49.678;24.560;2022-08-23T08:45:02;89.80;;;10.43;;
45326;SDS011;31062;49.678;24.560;2022-08-23T08:51:00;75.43;;;9.68;;
45326;SDS011;31062;49.678;24.560;2022-08-23T08:53:53;87.05;;;9.68;;
45326;SDS011;31062;49.678;24.560;2022-08-23T08:56:46;80.30;;;10.38;;
45326;SDS011;31062;49.678;24.560;2022-08-23T08:59:54;86.53;;;9.60;;
45326;SDS011;31062;49.678;24.560;2022-08-23T09:02:44;97.28;;;12.35;;
45326;SDS011;31062;49.678;24.560;2022-08-23T09:05:31;88.63;;;10.07;;
45326;SDS011;31062;49.678;24.560;2022-08-23T09:14:50;86.47;;;9.38;;
45326;SDS011;31062;49.678;24.560;2022-08-23T09:17:52;85.47;;;13.05;;
45326;SDS011;31062;49.678;24.560;2022-08-23T09:20:43;97.25;;;11.68;;
45326;SDS011;31062;49.678;24.560;2022-08-23T09:23:40;92.22;;;9.23;;
45326;SDS011;31062;49.678;24.560;2022-08-23T09:26:34;92.90;;;9.85;;
45326;SDS011;31062;49.678;24.560;2022-08-23T09:29:25;90.60;;;12.95;;
45326;SDS011;31062;49.678;24.560;2022-08-23T09:32:52;72.93;;;11.50;;
45326;SDS011;31062;49.678;24.560;2022-08-23T09:35:35;80.28;;;10.25;;
45326;SDS011;31062;49.678;24.560;2022-08-23T09:38:24;71.80;;;10.02;;
45326;SDS011;31062;49.678;24.560;2022-08-23T09:41:17;80.93;;;9.45;;
45326;SDS011;31062;49.678;24.560;2022-08-23T09:44:12;95.70;;;10.02;;
45326;SDS011;31062;49.678;24.560;2022-08-23T09:47:15;83.55;;;10.20;;
45326;SDS011;31062;49.678;24.560;2022-08-23T09:50:24;64.80;;;8.18;;
45326;SDS011;31062;49.678;24.560;2022-08-23T09:56:09;93.30;;;10.52;;
45326;SDS011;31062;49.678;24.560;2022-08-23T09:59:00;66.88;;;8.63;;
45326;SDS011;31062;49.678;24.560;2022-08-23T10:01:59;92.82;;;10.52;;
45326;SDS011;31062;49.678;24.560;2022-08-23T10:05:00;84.55;;;9.75;;
45326;SDS011;31062;49.678;24.560;2022-08-23T10:07:57;92.07;;;10.95;;
45326;SDS011;31062;49.678;24.560;2022-08-23T10:10:50;88.20;;;10.02;;
45326;SDS011;31062;49.678;24.560;2022-08-23T10:13:48;88.28;;;9.68;;
45326;SDS011;31062;49.678;24.560;2022-08-23T10:16:38;88.50;;;9.23;;
45326;SDS011;31062;49.678;24.560;2022-08-23T10:22:27;79.57;;;11.20;;
45326;SDS011;31062;49.678;24.560;2022-08-23T10:25:44;86.07;;;11.20;;
45326;SDS011;31062;49.678;24.560;2022-08-23T10:28:37;83.35;;;8.98;;
45326;SDS011;31062;49.678;24.560;2022-08-23T10:35:20;76.13;;;9.40;;
45326;SDS011;31062;49.678;24.560;2022-08-23T10:51:50;73.18;;;10.35;;
45326;SDS011;31062;49.678;24.560;2022-08-23T10:57:35;80.72;;;10.02;;
45326;SDS011;31062;49.678;24.560;2022-08-23T11:00:25;81.53;;;11.20;;
45326;SDS011;31062;49.678;24.560;2022-08-23T11:15:17;94.90;;;12.30;;
45326;SDS011;31062;49.678;24.560;2022-08-23T11:21:48;95.43;;;10.50;;
45326;SDS011;31062;49.678;24.560;2022-08-23T11:24:47;97.10;;;10.23;;
45326;SDS011;31062;49.678;24.560;2022-08-23T11:27:42;98.70;;;10.15;;
45326;SDS011;31062;49.678;24.560;2022-08-23T11:33:26;86.53;;;10.32;;
45326;SDS011;31062;49.678;24.560;2022-08-23T11:36:34;87.90;;;10.75;;
45326;SDS011;31062;49.678;24.560;2022-08-23T11:39:20;82.10;;;10.68;;
45326;SDS011;31062;49.678;24.560;2022-08-23T11:42:11;89.65;;;9.25;;
45326;SDS011;31062;49.678;24.560;2022-08-23T11:48:16;104.20;;;13.18;;
45326;SDS011;31062;49.678;24.560;2022-08-23T11:51:32;100.85;;;11.32;;
45326;SDS011;31062;49.678;24.560;2022-08-23T12:03:54;95.78;;;10.38;;
45326;SDS011;31062;49.678;24.560;2022-08-23T12:06:49;90.53;;;11.90;;
45326;SDS011;31062;49.678;24.560;2022-08-23T12:09:49;83.43;;;13.65;;
45326;SDS011;31062;49.678;24.560;2022-08-23T12:12:38;99.60;;;10.77;;
45326;SDS011;31062;49.678;24.560;2022-08-23T12:19:02;90.13;;;11.85;;
45326;SDS011;31062;49.678;24.560;2022-08-23T12:21:54;102.57;;;11.40;;
45326;SDS011;31062;49.678;24.560;2022-08-23T12:24:56;88.07;;;11.48;;
45326;SDS011;31062;49.678;24.560;2022-08-23T12:27:48;84.75;;;9.45;;
45326;SDS011;31062;49.678;24.560;2022-08-23T12:31:02;112.30;;;11.45;;
45326;SDS011;31062;49.678;24.560;2022-08-23T12:36:56;105.03;;;11.13;;
45326;SDS011;31062;49.678;24.560;2022-08-23T12:39:55;82.72;;;11.70;;
45326;SDS011;31062;49.678;24.560;2022-08-23T12:42:42;99.28;;;11.57;;
45326;SDS011;31062;49.678;24.560;2022-08-23T12:45:34;82.68;;;12.63;;
45326;SDS011;31062;49.678;24.560;2022-08-23T12:48:30;105.45;;;12.32;;
45326;SDS011;31062;49.678;24.560;2022-08-23T12:51:17;105.13;;;13.85;;
45326;SDS011;31062;49.678;24.560;2022-08-23T12:54:11;86.82;;;10.73;;
45326;SDS011;31062;49.678;24.560;2022-08-23T12:56:58;92.43;;;11.93;;
45326;SDS011;31062;49.678;24.560;2022-08-23T13:02:36;92.38;;;10.82;;
45326;SDS011;31062;49.678;24.560;2022-08-23T13:05:31;99.47;;;13.13;;
45326;SDS011;31062;49.678;24.560;2022-08-23T13:08:22;96.53;;;12.55;;
45326;SDS011;31062;49.678;24.560;2022-08-23T13:11:20;81.80;;;11.35;;
45326;SDS011;31062;49.678;24.560;2022-08-23T13:17:41;105.40;;;12.02;;
45326;SDS011;31062;49.678;24.560;2022-08-23T13:20:26;97.45;;;11.07;;
45326;SDS011;31062;49.678;24.560;2022-08-23T13:23:12;96.28;;;11.40;;
45326;SDS011;31062;49.678;24.560;2022-08-23T13:26:21;112.55;;;13.55;;
45326;SDS011;31062;49.678;24.560;2022-08-23T13:29:21;113.10;;;12.95;;
45326;SDS011;31062;49.678;24.560;2022-08-23T13:32:22;113.20;;;12.43;;
45326;SDS011;31062;49.678;24.560;2022-08-23T13:38:28;99.40;;;12.80;;
45326;SDS011;31062;49.678;24.560;2022-08-23T13:41:28;101.53;;;12.95;;
45326;SDS011;31062;49.678;24.560;2022-08-23T13:44:23;107.20;;;13.77;;
45326;SDS011;31062;49.678;24.560;2022-08-23T13:47:18;109.93;;;14.02;;
45326;SDS011;31062;49.678;24.560;2022-08-23T13:50:23;92.90;;;10.88;;
45326;SDS011;31062;49.678;24.560;2022-08-23T13:53:09;113.82;;;12.50;;
45326;SDS011;31062;49.678;24.560;2022-08-23T13:55:59;120.53;;;11.25;;
45326;SDS011;31062;49.678;24.560;2022-08-23T14:02:05;124.75;;;13.13;;
45326;SDS011;31062;49.678;24.560;2022-08-23T14:04:56;109.35;;;12.98;;
45326;SDS011;31062;49.678;24.560;2022-08-23T14:07:43;91.57;;;11.90;;
45326;SDS011;31062;49.678;24.560;2022-08-23T14:10:31;94.38;;;11.27;;
45326;SDS011;31062;49.678;24.560;2022-08-23T14:13:17;105.22;;;12.90;;
45326;SDS011;31062;49.678;24.560;2022-08-23T14:16:05;125.95;;;12.40;;
45326;SDS011;31062;49.678;24.560;2022-08-23T14:19:12;121.22;;;15.55;;
45326;SDS011;31062;49.678;24.560;2022-08-23T14:22:18;131.80;;;12.52;;
45326;SDS011;31062;49.678;24.560;2022-08-23T14:25:04;126.72;;;15.00;;
45326;SDS011;31062;49.678;24.560;2022-08-23T14:27:51;101.10;;;11.95;;
45326;SDS011;31062;49.678;24.560;2022-08-23T14:30:36;128.68;;;13.52;;
45326;SDS011;31062;49.678;24.560;2022-08-23T14:33:22;109.63;;;12.13;;
45326;SDS011;31062;49.678;24.560;2022-08-23T14:36:08;134.65;;;13.88;;
45326;SDS011;31062;49.678;24.560;2022-08-23T14:38:56;128.07;;;12.80;;
45326;SDS011;31062;49.678;24.560;2022-08-23T14:41:41;117.22;;;13.32;;
45326;SDS011;31062;49.678;24.560;2022-08-23T14:44:27;120.35;;;13.65;;
45326;SDS011;31062;49.678;24.560;2022-08-23T14:47:20;118.25;;;14.88;;
45326;SDS011;31062;49.678;24.560;2022-08-23T14:50:06;101.47;;;13.70;;
45326;SDS011;31062;49.678;24.560;2022-08-23T14:52:53;109.97;;;13.82;;
45326;SDS011;31062;49.678;24.560;2022-08-23T14:55:38;102.97;;;11.55;;
45326;SDS011;31062;49.678;24.560;2022-08-23T14:58:24;142.88;;;14.07;;
45326;SDS011;31062;49.678;24.560;2022-08-23T15:01:10;123.15;;;12.82;;
45326;SDS011;31062;49.678;24.560;2022-08-23T15:03:57;131.23;;;13.65;;
45326;SDS011;31062;49.678;24.560;2022-08-23T15:06:45;126.32;;;13.30;;
45326;SDS011;31062;49.678;24.560;2022-08-23T15:09:51;126.80;;;13.20;;
45326;SDS011;31062;49.678;24.560;2022-08-23T15:12:40;124.68;;;14.50;;
45326;SDS011;31062;49.678;24.560;2022-08-23T15:15:45;125.32;;;15.50;;
45326;SDS011;31062;49.678;24.560;2022-08-23T15:18:33;139.35;;;13.57;;
45326;SDS011;31062;49.678;24.560;2022-08-23T15:21:19;132.70;;;16.15;;
45326;SDS011;31062;49.678;24.560;2022-08-23T15:24:06;113.30;;;13.55;;
45326;SDS011;31062;49.678;24.560;2022-08-23T15:26:52;105.93;;;12.13;;
45326;SDS011;31062;49.678;24.560;2022-08-23T15:29:39;131.75;;;14.63;;
45326;SDS011;31062;49.678;24.560;2022-08-23T15:32:25;110.53;;;12.15;;
45326;SDS011;31062;49.678;24.560;2022-08-23T15:35:12;119.57;;;12.27;;
45326;SDS011;31062;49.678;24.560;2022-08-23T15:38:00;131.50;;;14.20;;
45326;SDS011;31062;49.678;24.560;2022-08-23T15:40:47;129.60;;;12.88;;
45326;SDS011;31062;49.678;24.560;2022-08-23T15:43:34;114.45;;;14.90;;
45326;SDS011;31062;49.678;24.560;2022-08-23T15:46:21;118.80;;;14.40;;
45326;SDS011;31062;49.678;24.560;2022-08-23T15:49:10;127.85;;;14.60;;
45326;SDS011;31062;49.678;24.560;2022-08-23T15:51:58;116.05;;;12.35;;
45326;SDS011;31062;49.678;24.560;2022-08-23T15:54:44;124.57;;;15.15;;
45326;SDS011;31062;49.678;24.560;2022-08-23T15:57:30;135.68;;;13.88;;
45326;SDS011;31062;49.678;24.560;2022-08-23T16:00:22;126.57;;;15.02;;
45326;SDS011;31062;49.678;24.560;2022-08-23T16:03:09;119.07;;;14.60;;
45326;SDS011;31062;49.678;24.560;2022-08-23T16:06:12;139.90;;;14.38;;
45326;SDS011;31062;49.678;24.560;2022-08-23T16:08:58;130.93;;;17.02;;
45326;SDS011;31062;49.678;24.560;2022-08-23T16:11:45;112.90;;;14.75;;
45326;SDS011;31062;49.678;24.560;2022-08-23T16:14:31;124.95;;;12.95;;
45326;SDS011;31062;49.678;24.560;2022-08-23T16:17:18;107.72;;;12.45;;
45326;SDS011;31062;49.678;24.560;2022-08-23T16:20:05;118.95;;;15.68;;
45326;SDS011;31062;49.678;24.560;2022-08-23T16:22:56;134.13;;;14.40;;
45326;SDS011;31062;49.678;24.560;2022-08-23T16:25:41;116.15;;;12.85;;
45326;SDS011;31062;49.678;24.560;2022-08-23T16:28:27;112.35;;;11.90;;
45326;SDS011;31062;49.678;24.560;2022-08-23T16:31:14;130.55;;;13.82;;
45326;SDS011;31062;49.678;24.560;2022-08-23T16:34:00;123.95;;;14.40;;
45326;SDS011;31062;49.678;24.560;2022-08-23T16:36:49;110.30;;;13.77;;
45326;SDS011;31062;49.678;24.560;2022-08-23T16:39:39;105.68;;;13.93;;
45326;SDS011;31062;49.678;24.560;2022-08-23T16:42:24;119.95;;;12.88;;
45326;SDS011;31062;49.678;24.560;2022-08-23T16:45:10;114.05;;;13.05;;
45326;SDS011;31062;49.678;24.560;2022-08-23T16:47:56;82.57;;;12.50;;
45326;SDS011;31062;49.678;24.560;2022-08-23T16:50:42;108.28;;;15.07;;
45326;SDS011;31062;49.678;24.560;2022-08-23T16:53:27;99.30;;;13.75;;
45326;SDS011;31062;49.678;24.560;2022-08-23T16:56:13;121.18;;;16.35;;
45326;SDS011;31062;49.678;24.560;2022-08-23T16:59:00;133.52;;;14.80;;
45326;SDS011;31062;49.678;24.560;2022-08-23T17:01:54;91.72;;;11.50;;
45326;SDS011;31062;49.678;24.560;2022-08-23T17:04:42;106.65;;;13.82;;
45326;SDS011;31062;49.678;24.560;2022-08-23T17:07:28;101.20;;;12.98;;
45326;SDS011;31062;49.678;24.560;2022-08-23T17:10:15;112.40;;;15.23;;
45326;SDS011;31062;49.678;24.560;2022-08-23T17:13:02;97.82;;;13.75;;
45326;SDS011;31062;49.678;24.560;2022-08-23T17:15:48;106.20;;;13.63;;
45326;SDS011;31062;49.678;24.560;2022-08-23T17:18:34;117.65;;;13.18;;
45326;SDS011;31062;49.678;24.560;2022-08-23T17:21:20;116.30;;;14.95;;
45326;SDS011;31062;49.678;24.560;2022-08-23T17:24:06;102.30;;;15.15;;
45326;SDS011;31062;49.678;24.560;2022-08-23T17:26:52;108.63;;;13.93;;
45326;SDS011;31062;49.678;24.560;2022-08-23T17:29:37;114.45;;;15.65;;
45326;SDS011;31062;49.678;24.560;2022-08-23T17:32:23;108.22;;;14.68;;
45326;SDS011;31062;49.678;24.560;2022-08-23T17:35:10;130.93;;;18.10;;
45326;SDS011;31062;49.678;24.560;2022-08-23T17:37:59;113.30;;;13.90;;
45326;SDS011;31062;49.678;24.560;2022-08-23T17:40:45;101.28;;;14.50;;
45326;SDS011;31062;49.678;24.560;2022-08-23T17:43:31;95.13;;;13.05;;
45326;SDS011;31062;49.678;24.560;2022-08-23T17:46:16;111.57;;;14.50;;
45326;SDS011;31062;49.678;24.560;2022-08-23T17:49:03;105.57;;;14.48;;
45326;SDS011;31062;49.678;24.560;2022-08-23T17:51:50;115.75;;;14.13;;
45326;SDS011;31062;49.678;24.560;2022-08-23T17:54:36;115.68;;;15.32;;
45326;SDS011;31062;49.678;24.560;2022-08-23T17:57:25;105.20;;;14.02;;
45326;SDS011;31062;49.678;24.560;2022-08-23T18:00:15;117.15;;;14.80;;
45326;SDS011;31062;49.678;24.560;2022-08-23T18:03:02;105.35;;;14.43;;
45326;SDS011;31062;49.678;24.560;2022-08-23T18:05:48;113.40;;;14.27;;
45326;SDS011;31062;49.678;24.560;2022-08-23T18:08:34;99.20;;;13.60;;
45326;SDS011;31062;49.678;24.560;2022-08-23T18:11:19;102.18;;;13.52;;
45326;SDS011;31062;49.678;24.560;2022-08-23T18:14:05;116.90;;;16.63;;
45326;SDS011;31062;49.678;24.560;2022-08-23T18:16:50;101.28;;;14.80;;